Photometre #347[NE_1.6] Troodos_CAO AOT

File : 20221128_347.hum

28/11/2022,05:25:31,TEMP=1.8,BA=5.64,STAT.A=1.0,ExtBa=14.07
28/11/2022,05:29:16,TEMP=2.1,BA=5.64,STAT.A=1.0,ExtBa=14.03
28/11/2022,05:33:18,TEMP=2.4,BA=5.64,STAT.h
28/11/2022,05:38:32,TEMP=2.4,BA=5.64,STAT.h
28/11/2022,05:44:55,TEMP=2.4,BA=5.64,STAT.h
28/11/2022,05:52:52,TEMP=2.4,BA=5.64,STAT.h
28/11/2022,06:03:05,TEMP=2.4,BA=5.64,STAT.h
28/11/2022,06:08:02,TEMP=2.4,BA=5.64,STAT.h
28/11/2022,06:13:39,TEMP=2.4,BA=5.64,STAT.h
28/11/2022,06:20:05,TEMP=2.4,BA=5.64,STAT.h
28/11/2022,06:27:26,TEMP=2.4,BA=5.64,STAT.h
28/11/2022,06:36:06,TEMP=2.4,BA=5.64,STAT.h
28/11/2022,06:36:26,TEMP=2.4,BA=5.64,STAT.h
28/11/2022,06:51:26,TEMP=2.4,BA=5.64,STAT.h
28/11/2022,07:06:26,TEMP=2.4,BA=5.64,STAT.h
28/11/2022,07:21:46,TEMP=3.3,BA=5.64,STAT.D=1.0,ExtBa=14.07
28/11/2022,07:36:48,TEMP=3.5,BA=5.64,STAT.F,ExtBa=14.04
28/11/2022,07:51:46,TEMP=3.4,BA=5.64,STAT.D=1.0,ExtBa=14.08
28/11/2022,08:06:46,TEMP=3.6,BA=5.64,STAT.D=1.0,ExtBa=14.09
28/11/2022,08:21:46,TEMP=4.2,BA=5.64,STAT.D=1.0,ExtBa=14.08
28/11/2022,08:36:48,TEMP=4.5,BA=5.64,STAT.F,ExtBa=14.05
28/11/2022,08:51:46,TEMP=4.9,BA=5.64,STAT.D=1.0,ExtBa=14.08
28/11/2022,09:06:46,TEMP=5.1,BA=5.64,STAT.D=1.0,ExtBa=14.08
28/11/2022,09:21:46,TEMP=5.5,BA=5.64,STAT.D=1.0,ExtBa=14.08
28/11/2022,09:36:48,TEMP=6.3,BA=5.64,STAT.F,ExtBa=14.04
28/11/2022,09:51:46,TEMP=7.0,BA=5.40,STAT.D=1.0,ExtBa=12.86
28/11/2022,10:06:46,TEMP=6.9,BA=5.64,STAT.D=1.0,ExtBa=13.45
28/11/2022,10:21:46,TEMP=7.7,BA=5.64,STAT.D=1.0,ExtBa=13.62
28/11/2022,10:36:48,TEMP=7.9,BA=5.64,STAT.F,ExtBa=13.72
28/11/2022,10:51:46,TEMP=8.0,BA=5.40,STAT.D=1.0,ExtBa=12.90
28/11/2022,11:06:46,TEMP=7.4,BA=5.64,STAT.D=1.0,ExtBa=13.44
28/11/2022,11:21:46,TEMP=7.3,BA=5.64,STAT.D=1.0,ExtBa=13.61
28/11/2022,11:36:48,TEMP=7.1,BA=5.64,STAT.F,ExtBa=13.68
28/11/2022,11:51:46,TEMP=6.8,BA=5.64,STAT.D=1.0,ExtBa=13.83
28/11/2022,12:06:46,TEMP=6.4,BA=5.64,STAT.D=1.0,ExtBa=13.93
28/11/2022,12:21:46,TEMP=6.2,BA=5.64,STAT.D=1.0,ExtBa=13.99
28/11/2022,12:36:47,TEMP=6.6,BA=5.64,STAT.F,ExtBa=14.00
28/11/2022,12:38:34,TEMP=7.0,BA=5.64,STAT.C=1.0,ExtBa=13.94
28/11/2022,12:45:47,TEMP=7.2,BA=5.56,STAT.A=1.0,ExtBa=13.98
28/11/2022,12:53:10,TEMP=7.9,BA=5.64,STAT.A=1.0,ExtBa=13.99
28/11/2022,12:59:34,TEMP=7.9,BA=5.64,STAT.A=1.0,ExtBa=13.99
28/11/2022,13:05:11,TEMP=7.8,BA=5.60,STAT.A=1.0,ExtBa=13.98
28/11/2022,13:10:08,TEMP=7.7,BA=5.60,STAT.B=1.0,ExtBa=13.96
28/11/2022,13:20:21,TEMP=7.6,BA=5.64,STAT.A=1.0,ExtBa=12.94
28/11/2022,13:28:18,TEMP=8.2,BA=5.64,STAT.A=1.0,ExtBa=13.27
28/11/2022,13:34:41,TEMP=8.6,BA=5.64,STAT.A=1.0,ExtBa=13.44
28/11/2022,13:39:55,TEMP=8.7,BA=5.64,STAT.A=1.0,ExtBa=13.50
28/11/2022,13:44:18,TEMP=8.9,BA=5.60,STAT.A=1.0,ExtBa=13.55
28/11/2022,13:48:01,TEMP=8.8,BA=5.60,STAT.A=1.0,ExtBa=13.56